createdAt,value
2022-10-02T00:02:02.160Z,12.20
2022-10-02T00:04:49.831Z,12.20
2022-10-02T00:07:17.726Z,12.20
2022-10-02T00:09:53.385Z,12.10
2022-10-02T00:12:21.159Z,12.10
2022-10-02T00:14:48.668Z,12.10
2022-10-02T00:17:26.901Z,12.10
2022-10-02T00:19:54.655Z,12.30
2022-10-02T00:22:26.201Z,12.10
2022-10-02T00:24:53.098Z,12.00
2022-10-02T00:27:35.671Z,12.00
2022-10-02T00:30:03.041Z,12.00
2022-10-02T00:32:37.811Z,12.10
2022-10-02T00:35:22.973Z,12.00
2022-10-02T00:37:55.723Z,12.10
2022-10-02T00:40:37.780Z,12.10
2022-10-02T00:43:07.257Z,11.90
2022-10-02T00:45:40.479Z,12.10
2022-10-02T00:48:07.223Z,12.10
2022-10-02T00:50:54.913Z,12.00
2022-10-02T00:53:33.849Z,12.00
2022-10-02T00:56:00.569Z,12.10
2022-10-02T00:58:46.061Z,12.10
2022-10-02T01:01:14.713Z,12.10
2022-10-02T01:03:43.057Z,12.10
2022-10-02T01:06:10.321Z,12.10
2022-10-02T01:08:37.906Z,12.00
2022-10-02T01:11:05.500Z,11.90
2022-10-02T01:13:34.080Z,12.10
2022-10-02T01:16:01.140Z,12.10
2022-10-02T01:18:29.151Z,12.20
2022-10-02T01:21:10.629Z,12.10
2022-10-02T01:23:37.252Z,12.10
2022-10-02T01:26:04.135Z,12.10
2022-10-02T01:28:30.863Z,12.10
2022-10-02T01:31:00.759Z,12.10
2022-10-02T01:33:27.510Z,12.10
2022-10-02T01:35:54.171Z,12.10
2022-10-02T01:38:22.423Z,12.20
2022-10-02T01:40:49.138Z,12.10
2022-10-02T01:43:28.095Z,12.30
2022-10-02T01:45:57.643Z,12.20
2022-10-02T01:48:34.652Z,12.00
2022-10-02T01:51:01.322Z,11.90
2022-10-02T01:53:46.860Z,12.00
2022-10-02T01:56:27.862Z,11.90
2022-10-02T01:59:00.829Z,12.10
2022-10-02T02:01:31.846Z,12.10
2022-10-02T02:04:10.780Z,11.90
2022-10-02T02:06:52.446Z,11.90
2022-10-02T02:09:39.874Z,12.10
2022-10-02T02:12:12.078Z,12.20
2022-10-02T02:14:42.292Z,11.90
2022-10-02T02:17:12.587Z,12.10
2022-10-02T02:19:39.209Z,12.00
2022-10-02T02:22:13.734Z,12.00
2022-10-02T02:24:43.326Z,12.00
2022-10-02T02:27:13.618Z,12.20
2022-10-02T02:29:43.039Z,12.10
2022-10-02T02:32:10.858Z,12.00
2022-10-02T02:34:59.392Z,12.00
2022-10-02T02:37:27.756Z,12.00
2022-10-02T02:39:59.627Z,12.20
2022-10-02T02:42:29.717Z,12.10
2022-10-02T02:44:59.346Z,12.00
2022-10-02T02:47:29.113Z,12.00
2022-10-02T02:50:25.333Z,11.90
2022-10-02T02:52:55.513Z,11.90
2022-10-02T02:55:24.122Z,12.00
2022-10-02T02:57:53.542Z,11.90
2022-10-02T03:00:20.300Z,11.90
2022-10-02T03:02:46.976Z,11.80
2022-10-02T03:05:14.833Z,12.00
2022-10-02T03:07:45.462Z,12.00
2022-10-02T03:10:15.894Z,11.90
2022-10-02T03:12:51.848Z,11.90
2022-10-02T03:15:25.917Z,11.90
2022-10-02T03:18:11.422Z,12.00
2022-10-02T03:20:44.573Z,12.00
2022-10-02T03:23:14.251Z,11.90
2022-10-02T03:25:49.994Z,11.90
2022-10-02T03:28:27.165Z,11.80
2022-10-02T03:31:03.661Z,11.90
2022-10-02T03:33:30.718Z,12.00
2022-10-02T03:35:57.574Z,12.00
2022-10-02T03:38:24.531Z,11.90
2022-10-02T03:40:51.191Z,11.80
2022-10-02T03:43:19.834Z,12.00
2022-10-02T03:45:51.336Z,11.90
2022-10-02T03:48:18.653Z,11.90
2022-10-02T03:50:45.469Z,11.90
2022-10-02T03:53:13.637Z,11.80
2022-10-02T03:55:42.439Z,11.70
2022-10-02T03:58:14.330Z,11.70
2022-10-02T04:00:52.356Z,11.70
2022-10-02T04:03:39.349Z,11.60
2022-10-02T04:06:09.631Z,11.70
2022-10-02T04:08:39.074Z,11.60
2022-10-02T04:11:24.496Z,11.50
2022-10-02T04:13:55.442Z,11.40
2022-10-02T04:16:42.359Z,11.40
2022-10-02T04:21:43.887Z,11.40
2022-10-02T04:24:21.307Z,11.50
2022-10-02T04:26:56.462Z,11.50
2022-10-02T04:29:28.354Z,11.50
2022-10-02T04:32:00.517Z,11.40
2022-10-02T04:34:27.931Z,11.40
2022-10-02T04:37:13.383Z,11.50
2022-10-02T04:39:46.736Z,11.50
2022-10-02T04:42:32.453Z,11.40
2022-10-02T04:45:14.494Z,11.40
2022-10-02T04:48:08.329Z,11.40
2022-10-02T04:50:44.222Z,11.30
2022-10-02T04:53:28.919Z,11.40
2022-10-02T04:56:14.467Z,11.30
2022-10-02T04:58:44.343Z,11.20
2022-10-02T05:01:17.258Z,11.30
2022-10-02T05:03:52.178Z,11.20
2022-10-02T05:06:39.299Z,11.20
2022-10-02T05:09:06.073Z,11.20
2022-10-02T05:11:44.320Z,11.20
2022-10-02T05:14:14.028Z,11.20
2022-10-02T05:16:43.820Z,11.10
2022-10-02T05:19:29.463Z,11.20
2022-10-02T05:21:59.176Z,11.20
2022-10-02T05:24:35.063Z,11.30
2022-10-02T05:27:14.079Z,11.30
2022-10-02T05:29:40.767Z,11.30
2022-10-02T05:32:13.511Z,11.40
2022-10-02T05:34:49.052Z,11.20
2022-10-02T05:37:18.546Z,11.30
2022-10-02T05:39:49.690Z,11.40
2022-10-02T05:42:22.362Z,11.50
2022-10-02T05:44:56.240Z,11.50
2022-10-02T05:47:26.398Z,11.50
2022-10-02T05:49:58.642Z,11.50
2022-10-02T05:52:44.304Z,11.40
2022-10-02T05:55:19.357Z,11.30
2022-10-02T05:57:48.598Z,11.50
2022-10-02T06:00:22.103Z,11.50
2022-10-02T06:03:03.609Z,11.50
2022-10-02T06:05:35.297Z,11.60
2022-10-02T06:08:04.064Z,11.60
2022-10-02T06:10:37.276Z,11.60
2022-10-02T06:13:21.829Z,11.70
2022-10-02T06:15:56.237Z,11.80
2022-10-02T06:18:26.652Z,12.00
2022-10-02T06:20:55.668Z,12.00
2022-10-02T06:23:25.259Z,12.20
2022-10-02T06:25:54.946Z,12.30
2022-10-02T06:28:21.607Z,12.50
2022-10-02T06:30:51.018Z,12.60
2022-10-02T06:33:17.642Z,12.70
2022-10-02T06:36:03.261Z,12.70
2022-10-02T06:38:42.721Z,12.70
2022-10-02T06:41:09.347Z,12.80
2022-10-02T06:43:47.585Z,12.90
2022-10-02T06:48:51.829Z,13.30
2022-10-02T06:51:18.491Z,13.40
2022-10-02T06:54:03.928Z,13.50
2022-10-02T06:56:39.845Z,13.50
2022-10-02T06:59:12.721Z,13.60
2022-10-02T07:01:54.971Z,13.50
2022-10-02T07:04:29.721Z,13.70
2022-10-02T07:07:22.585Z,13.70
2022-10-02T07:09:55.197Z,13.70
2022-10-02T07:12:21.830Z,13.70
2022-10-02T07:15:21.088Z,13.80
2022-10-02T07:17:50.497Z,13.60
2022-10-02T07:20:40.288Z,13.80
2022-10-02T07:23:07.873Z,13.80
2022-10-02T07:25:42.882Z,13.90
2022-10-02T07:28:15.706Z,14.10
2022-10-02T07:30:49.760Z,13.90
2022-10-02T07:33:25.327Z,14.00
2022-10-02T07:36:03.334Z,14.00
2022-10-02T07:38:32.804Z,14.00
2022-10-02T07:41:12.799Z,14.10
2022-10-02T07:43:39.484Z,14.10
2022-10-02T07:46:22.722Z,14.10
2022-10-02T07:48:56.735Z,14.30
2022-10-02T07:51:42.229Z,14.30
2022-10-02T07:54:17.075Z,14.40
2022-10-02T07:56:44.574Z,14.70
2022-10-02T07:59:13.227Z,14.60
2022-10-02T08:01:40.377Z,14.60
2022-10-02T08:04:10.399Z,14.60
2022-10-02T08:06:37.746Z,14.50
2022-10-02T08:09:04.730Z,14.70
2022-10-02T08:11:33.074Z,14.50
2022-10-02T08:14:21.548Z,14.40
2022-10-02T08:16:49.523Z,14.50
2022-10-02T08:19:22.921Z,14.80
2022-10-02T08:26:46.249Z,14.70
2022-10-02T08:29:31.783Z,14.80
2022-10-02T08:31:58.470Z,14.70
2022-10-02T08:34:25.536Z,14.60
2022-10-02T08:36:57.818Z,14.80
2022-10-02T08:39:24.478Z,14.90
2022-10-02T08:42:06.449Z,14.90
2022-10-02T08:44:36.560Z,14.90
2022-10-02T08:47:22.018Z,14.90
2022-10-02T08:49:54.723Z,14.90
2022-10-02T08:52:27.394Z,14.90
2022-10-02T08:55:12.706Z,14.90
2022-10-02T08:57:58.471Z,15.00
2022-10-02T09:00:34.492Z,14.70
2022-10-02T09:03:04.289Z,14.60
2022-10-02T09:05:49.861Z,14.90
2022-10-02T09:08:16.551Z,15.00
2022-10-02T09:11:02.109Z,15.30
2022-10-02T09:13:47.716Z,15.10
2022-10-02T09:16:14.555Z,15.00
2022-10-02T09:18:44.549Z,14.80
2022-10-02T09:21:15.632Z,15.00
2022-10-02T09:24:01.342Z,15.20
2022-10-02T09:26:28.120Z,15.20
2022-10-02T09:29:13.924Z,15.50
2022-10-02T09:31:56.124Z,15.50
2022-10-02T09:34:41.753Z,15.00
2022-10-02T09:37:24.976Z,15.20
2022-10-02T09:40:01.158Z,14.90
2022-10-02T09:42:27.966Z,15.10
2022-10-02T09:45:07.091Z,15.20
2022-10-02T09:47:52.472Z,15.10
2022-10-02T09:50:19.166Z,15.40
2022-10-02T09:52:45.872Z,15.60
2022-10-02T09:55:32.167Z,15.60
2022-10-02T09:58:09.346Z,15.70
2022-10-02T10:00:36.111Z,15.90
2022-10-02T10:03:18.394Z,15.90
2022-10-02T10:05:47.836Z,15.70
2022-10-02T10:08:24.643Z,15.60
2022-10-02T10:10:57.508Z,15.60
2022-10-02T10:13:24.214Z,15.90
2022-10-02T10:16:12.589Z,16.00
2022-10-02T10:18:39.401Z,15.90
2022-10-02T10:21:30.085Z,15.60
2022-10-02T10:24:15.963Z,15.90
2022-10-02T10:26:56.114Z,15.90
2022-10-02T10:29:22.906Z,16.10
2022-10-02T10:31:49.641Z,15.90
2022-10-02T10:34:19.425Z,15.80
2022-10-02T10:37:06.150Z,16.10
2022-10-02T10:39:32.833Z,16.10
2022-10-02T10:42:02.549Z,16.20
2022-10-02T10:44:53.559Z,16.00
2022-10-02T10:47:35.467Z,15.60
2022-10-02T10:50:14.168Z,15.70
2022-10-02T10:52:53.931Z,15.80
2022-10-02T10:55:29.960Z,16.00
2022-10-02T10:57:59.697Z,16.20
2022-10-02T11:00:38.568Z,16.20
2022-10-02T11:03:23.939Z,16.50
2022-10-02T11:05:58.676Z,16.90
2022-10-02T11:08:31.485Z,16.50
2022-10-02T11:11:04.418Z,16.10
2022-10-02T11:13:40.238Z,15.70
2022-10-02T11:16:16.028Z,15.70
2022-10-02T11:19:01.034Z,15.40
2022-10-02T11:21:46.604Z,15.60
2022-10-02T11:24:24.732Z,15.70
2022-10-02T11:27:10.424Z,15.80
2022-10-02T11:29:46.250Z,15.70
2022-10-02T11:32:15.977Z,15.50
2022-10-02T11:34:42.656Z,15.30
2022-10-02T11:37:15.422Z,15.60
2022-10-02T11:39:42.096Z,15.80
2022-10-02T11:42:24.046Z,15.90
2022-10-02T11:44:56.271Z,15.70
2022-10-02T11:47:41.329Z,15.80
2022-10-02T11:50:28.938Z,15.70
2022-10-02T11:52:58.736Z,16.10
2022-10-02T11:55:38.141Z,16.00
2022-10-02T11:58:23.719Z,16.00
2022-10-02T12:01:02.679Z,15.90
2022-10-02T12:03:37.272Z,16.00
2022-10-02T12:06:06.643Z,16.40
2022-10-02T12:08:51.890Z,16.20
2022-10-02T12:11:24.272Z,16.30
2022-10-02T12:13:54.027Z,16.50
2022-10-02T12:16:20.738Z,16.40
2022-10-02T12:18:50.530Z,15.90
2022-10-02T12:21:36.378Z,16.00
2022-10-02T12:24:06.294Z,15.90
2022-10-02T12:26:35.997Z,15.60
2022-10-02T12:29:07.826Z,15.30
2022-10-02T12:31:54.793Z,15.20
2022-10-02T12:34:31.383Z,15.50
2022-10-02T12:36:58.120Z,15.80
2022-10-02T12:39:44.036Z,15.60
2022-10-02T12:42:27.484Z,15.40
2022-10-02T12:45:11.379Z,15.60
2022-10-02T12:47:59.524Z,15.50
2022-10-02T12:50:44.606Z,15.30
2022-10-02T12:53:14.137Z,15.40
2022-10-02T12:55:49.865Z,15.40
2022-10-02T12:58:36.854Z,15.40
2022-10-02T13:01:22.446Z,15.50
2022-10-02T13:04:01.113Z,15.40
2022-10-02T13:06:33.906Z,15.20
2022-10-02T13:09:05.253Z,15.30
2022-10-02T13:11:56.104Z,15.40
2022-10-02T13:14:38.286Z,15.40
2022-10-02T13:17:21.813Z,15.40
2022-10-02T13:19:56.823Z,15.20
2022-10-02T13:22:26.617Z,15.20
2022-10-02T13:24:59.784Z,15.00
2022-10-02T13:27:33.005Z,14.90
2022-10-02T13:30:04.858Z,15.00
2022-10-02T13:32:51.889Z,15.00
2022-10-02T13:35:24.507Z,15.00
2022-10-02T13:37:51.232Z,14.90
2022-10-02T13:40:21.532Z,15.30
2022-10-02T13:42:55.676Z,15.60
2022-10-02T13:45:27.292Z,15.90
2022-10-02T13:47:58.544Z,15.90
2022-10-02T13:50:28.315Z,15.90
2022-10-02T13:52:54.983Z,16.00
2022-10-02T13:55:24.780Z,16.20
2022-10-02T13:58:10.431Z,16.30
2022-10-02T14:00:37.114Z,16.00
2022-10-02T14:03:08.546Z,16.00
2022-10-02T14:05:35.226Z,15.80
2022-10-02T14:08:01.908Z,15.80
2022-10-02T14:10:31.762Z,15.80
2022-10-02T14:13:17.409Z,15.60
2022-10-02T14:15:59.418Z,15.50
2022-10-02T14:18:45.082Z,15.60
2022-10-02T14:21:17.919Z,15.40
2022-10-02T14:24:05.954Z,15.30
2022-10-02T14:26:32.642Z,15.30
2022-10-02T14:29:18.239Z,15.30
2022-10-02T14:31:48.121Z,15.20
2022-10-02T14:34:21.076Z,15.10
2022-10-02T14:36:59.750Z,15.10
2022-10-02T14:39:31.485Z,15.00
2022-10-02T14:42:10.430Z,15.00
2022-10-02T14:44:40.104Z,15.00
2022-10-02T14:47:15.395Z,14.80
2022-10-02T14:49:54.410Z,14.80
2022-10-02T14:52:40.043Z,14.90
2022-10-02T14:55:14.656Z,14.80
2022-10-02T14:58:00.336Z,14.70
2022-10-02T15:00:35.517Z,14.70
2022-10-02T15:03:10.907Z,14.80
2022-10-02T15:05:37.579Z,14.80
2022-10-02T15:08:39.899Z,14.80
2022-10-02T15:11:18.015Z,14.70
2022-10-02T15:13:46.936Z,14.80
2022-10-02T15:16:13.708Z,14.60
2022-10-02T15:18:48.770Z,14.60
2022-10-02T15:21:38.880Z,14.60
2022-10-02T15:24:27.407Z,14.50
2022-10-02T15:27:15.479Z,14.40
2022-10-02T15:29:52.547Z,14.50
2022-10-02T15:32:19.249Z,14.50
2022-10-02T15:34:52.258Z,14.30
2022-10-02T15:37:24.643Z,14.30
2022-10-02T15:40:01.198Z,14.40
2022-10-02T15:42:49.934Z,14.30
2022-10-02T15:45:35.955Z,14.20
2022-10-02T15:48:12.252Z,14.20
2022-10-02T15:50:51.339Z,14.10
2022-10-02T15:53:27.785Z,14.10
2022-10-02T15:56:13.396Z,14.00
2022-10-02T15:58:58.882Z,14.00
2022-10-02T16:01:43.751Z,14.00
2022-10-02T16:04:23.458Z,14.00
2022-10-02T16:06:53.159Z,13.80
2022-10-02T16:09:34.777Z,13.70
2022-10-02T16:12:08.278Z,13.60
2022-10-02T16:14:49.560Z,13.60
2022-10-02T16:17:24.663Z,13.50
2022-10-02T16:20:09.664Z,13.50
2022-10-02T16:22:44.689Z,13.40
2022-10-02T16:25:14.409Z,13.40
2022-10-02T16:27:50.459Z,13.30
2022-10-02T16:30:19.338Z,13.40
2022-10-02T16:32:46.177Z,13.40
2022-10-02T16:35:16.111Z,13.30
2022-10-02T16:38:13.559Z,13.30
2022-10-02T16:40:52.450Z,13.30
2022-10-02T16:43:28.352Z,13.30
2022-10-02T16:45:55.259Z,13.20
2022-10-02T16:48:26.234Z,13.30
2022-10-02T16:50:52.961Z,13.20
2022-10-02T16:53:25.218Z,13.20
2022-10-02T16:55:56.833Z,13.30
2022-10-02T16:58:26.592Z,13.30
2022-10-02T17:00:53.320Z,13.30
2022-10-02T17:03:38.130Z,13.20
2022-10-02T17:06:17.344Z,13.20
2022-10-02T17:09:10.603Z,13.30
2022-10-02T17:11:49.865Z,13.30
2022-10-02T17:14:16.542Z,13.30
2022-10-02T17:16:52.492Z,13.30
2022-10-02T17:19:30.902Z,13.40
2022-10-02T17:22:01.009Z,13.40
2022-10-02T17:24:42.254Z,13.30
2022-10-02T17:27:27.584Z,13.20
2022-10-02T17:29:57.663Z,13.30
2022-10-02T17:32:38.892Z,13.20
2022-10-02T17:35:28.912Z,13.10
2022-10-02T17:37:55.587Z,13.10
2022-10-02T17:40:48.330Z,13.10
2022-10-02T17:43:28.015Z,13.10
2022-10-02T17:46:13.336Z,13.10
2022-10-02T17:49:06.454Z,13.00
2022-10-02T17:51:52.439Z,13.00
2022-10-02T17:54:38.679Z,13.00
2022-10-02T17:57:11.371Z,13.10
2022-10-02T17:59:38.225Z,13.20
2022-10-02T18:02:04.985Z,13.10
2022-10-02T18:04:50.654Z,13.10
2022-10-02T18:07:23.618Z,13.00
2022-10-02T18:09:50.621Z,13.00
2022-10-02T18:14:59.731Z,13.00
2022-10-02T18:17:32.324Z,13.00
2022-10-02T18:20:02.035Z,12.90
2022-10-02T18:22:36.374Z,12.90
2022-10-02T18:25:22.248Z,12.90
2022-10-02T18:28:00.215Z,12.90
2022-10-02T18:30:53.768Z,13.00
2022-10-02T18:33:30.471Z,12.90
2022-10-02T18:36:10.974Z,12.90
2022-10-02T18:38:37.992Z,12.90
2022-10-02T18:41:08.299Z,12.90
2022-10-02T18:43:43.778Z,12.80
2022-10-02T18:46:32.502Z,12.80
2022-10-02T18:49:02.334Z,12.90
2022-10-02T18:51:35.480Z,12.80
2022-10-02T18:54:05.580Z,12.90
2022-10-02T18:57:01.868Z,12.80
2022-10-02T18:59:31.728Z,12.90
2022-10-02T19:04:44.785Z,12.90
2022-10-02T19:07:16.949Z,12.90
2022-10-02T19:09:43.678Z,12.90
2022-10-02T19:12:15.030Z,12.90
2022-10-02T19:14:43.198Z,12.90
2022-10-02T19:17:14.418Z,12.90
2022-10-02T19:19:41.355Z,12.90
2022-10-02T19:22:16.769Z,12.90
2022-10-02T19:24:44.453Z,12.80
2022-10-02T19:27:18.168Z,12.90
2022-10-02T19:29:47.841Z,12.80
2022-10-02T19:32:20.723Z,12.80
2022-10-02T19:34:49.521Z,12.80
2022-10-02T19:37:17.948Z,12.80
2022-10-02T19:39:49.479Z,12.80
2022-10-02T19:42:18.332Z,12.80
2022-10-02T19:44:46.852Z,12.70
2022-10-02T19:47:16.319Z,12.70
2022-10-02T19:49:46.670Z,12.70
2022-10-02T19:52:28.677Z,12.60
2022-10-02T19:54:56.360Z,12.70
2022-10-02T19:57:24.607Z,12.80
2022-10-02T19:59:51.960Z,12.70
2022-10-02T20:02:23.920Z,12.60
2022-10-02T20:04:52.374Z,12.60
2022-10-02T20:07:20.405Z,12.60
2022-10-02T20:09:49.939Z,12.60
2022-10-02T20:12:19.916Z,12.50
2022-10-02T20:14:50.589Z,12.40
2022-10-02T20:17:17.587Z,12.50
2022-10-02T20:19:57.728Z,12.50
2022-10-02T20:22:47.872Z,12.50
2022-10-02T20:25:20.868Z,12.40
2022-10-02T20:28:11.929Z,12.40
2022-10-02T20:30:39.738Z,12.40
2022-10-02T20:33:13.163Z,12.40
2022-10-02T20:35:44.698Z,12.40
2022-10-02T20:38:31.645Z,12.50
2022-10-02T20:40:59.751Z,12.40
2022-10-02T20:43:32.961Z,12.40
2022-10-02T20:46:19.993Z,12.30
2022-10-02T20:49:08.060Z,12.50
2022-10-02T20:51:52.448Z,12.30
2022-10-02T20:54:39.672Z,12.30
2022-10-02T20:57:38.134Z,12.40
2022-10-02T21:00:15.882Z,12.30
2022-10-02T21:02:53.298Z,12.20
2022-10-02T21:05:23.202Z,12.30
2022-10-02T21:08:08.887Z,12.20
2022-10-02T21:10:47.873Z,12.10
2022-10-02T21:13:33.611Z,12.20
2022-10-02T21:16:09.643Z,12.20
2022-10-02T21:18:38.901Z,12.20
2022-10-02T21:21:24.450Z,12.20
2022-10-02T21:23:54.271Z,12.30
2022-10-02T21:26:44.316Z,12.20
2022-10-02T21:29:30.163Z,12.30
2022-10-02T21:32:02.974Z,12.30
2022-10-02T21:34:48.693Z,12.20
2022-10-02T21:37:35.692Z,12.30
2022-10-02T21:42:56.118Z,12.10
2022-10-02T21:45:32.030Z,12.20
2022-10-02T21:48:07.952Z,12.20
2022-10-02T21:50:45.910Z,12.30
2022-10-02T21:53:15.785Z,12.30
2022-10-02T21:56:12.226Z,12.20
2022-10-02T21:58:38.969Z,12.20
2022-10-02T22:01:06.129Z,12.20
2022-10-02T22:03:39.208Z,12.20
2022-10-02T22:06:11.980Z,12.10
2022-10-02T22:08:47.873Z,12.10
2022-10-02T22:11:34.409Z,12.20
2022-10-02T22:14:06.392Z,12.00
2022-10-02T22:16:52.558Z,12.20
2022-10-02T22:19:38.236Z,12.10
2022-10-02T22:22:22.139Z,12.00
2022-10-02T22:25:06.421Z,12.00
2022-10-02T22:27:45.107Z,12.00
2022-10-02T22:30:23.535Z,12.00
2022-10-02T22:33:01.885Z,12.00
2022-10-02T22:35:28.709Z,12.00
2022-10-02T22:38:16.837Z,11.90
2022-10-02T22:40:53.979Z,11.90
2022-10-02T22:43:23.566Z,11.90
2022-10-02T22:46:10.702Z,11.90
2022-10-02T22:48:45.752Z,11.90
2022-10-02T22:51:19.134Z,11.90
2022-10-02T22:53:51.619Z,11.80
2022-10-02T22:56:39.200Z,11.80
2022-10-02T22:59:09.013Z,11.80
2022-10-02T23:01:46.418Z,11.80
2022-10-02T23:04:19.466Z,11.70
2022-10-02T23:06:48.496Z,11.80
2022-10-02T23:09:26.513Z,11.80
2022-10-02T23:11:53.252Z,11.70
2022-10-02T23:14:22.889Z,11.70
2022-10-02T23:17:05.672Z,11.70
2022-10-02T23:19:41.670Z,11.70
2022-10-02T23:22:14.203Z,11.70
2022-10-02T23:24:46.813Z,11.70
2022-10-02T23:27:16.223Z,11.60
2022-10-02T23:29:45.954Z,11.60
2022-10-02T23:32:21.696Z,11.70
2022-10-02T23:34:51.448Z,11.60
2022-10-02T23:37:27.430Z,11.50
2022-10-02T23:39:58.565Z,11.60
2022-10-02T23:42:32.441Z,11.50
2022-10-02T23:45:01.941Z,11.50
2022-10-02T23:48:04.232Z,11.50
2022-10-02T23:50:36.913Z,11.40
2022-10-02T23:53:22.445Z,11.40
2022-10-02T23:55:55.199Z,11.40
2022-10-02T23:58:29.286Z,11.40
